createdAt,value
2018-10-07T00:00:32.836Z,100338.69
2018-10-07T00:03:00.373Z,100332.05
2018-10-07T00:05:27.877Z,100332.52
2018-10-07T00:07:54.558Z,100335.41
2018-10-07T00:10:22.133Z,100334.12
2018-10-07T00:12:48.850Z,100334.95
2018-10-07T00:15:16.376Z,100336.44
2018-10-07T00:17:43.929Z,100332.00
2018-10-07T00:20:11.548Z,100327.48
2018-10-07T00:22:38.204Z,100325.32
2018-10-07T00:25:07.964Z,100322.67
2018-10-07T00:27:36.817Z,100324.13
2018-10-07T00:30:04.580Z,100322.47
2018-10-07T00:32:32.129Z,100324.45
2018-10-07T00:34:59.752Z,100326.78
2018-10-07T00:37:27.164Z,100327.28
2018-10-07T00:39:53.891Z,100328.23
2018-10-07T00:42:21.350Z,100321.10
2018-10-07T00:44:48.945Z,100318.45
2018-10-07T00:47:16.520Z,100320.77
2018-10-07T00:49:44.172Z,100322.76
2018-10-07T00:52:11.726Z,100328.41
2018-10-07T00:54:38.371Z,100322.09
2018-10-07T00:57:08.096Z,100312.84
2018-10-07T00:59:35.816Z,100310.15
2018-10-07T01:02:02.469Z,100320.10
2018-10-07T01:04:29.199Z,100310.81
2018-10-07T01:06:55.829Z,100313.59
2018-10-07T01:09:22.583Z,100311.73
2018-10-07T01:11:49.227Z,100309.62
2018-10-07T01:14:15.914Z,100313.80
2018-10-07T01:16:42.573Z,100315.63
2018-10-07T01:19:09.219Z,100318.28
2018-10-07T01:21:37.629Z,100319.61
2018-10-07T01:24:06.103Z,100318.28
2018-10-07T01:26:33.072Z,100318.08
2018-10-07T01:29:00.695Z,100310.31
2018-10-07T01:31:28.301Z,100315.13
2018-10-07T01:33:55.985Z,100314.27
2018-10-07T01:36:23.463Z,100318.28
2018-10-07T01:38:51.141Z,100314.56
2018-10-07T01:41:18.649Z,100313.73
2018-10-07T01:43:46.332Z,100315.42
2018-10-07T01:46:13.940Z,100314.43
2018-10-07T01:48:41.624Z,100313.77
2018-10-07T01:51:09.156Z,100314.76
2018-10-07T01:53:37.757Z,100316.09
2018-10-07T01:56:07.028Z,100319.23
2018-10-07T01:58:35.742Z,100321.89
2018-10-07T02:01:02.389Z,100321.73
2018-10-07T02:03:29.877Z,100329.19
2018-10-07T02:05:56.560Z,100327.38
2018-10-07T02:08:24.004Z,100318.24
2018-10-07T02:10:51.611Z,100321.52
2018-10-07T02:13:19.291Z,100323.69
2018-10-07T02:15:46.889Z,100322.72
2018-10-07T02:18:14.556Z,100325.37
2018-10-07T02:20:42.249Z,100322.56
2018-10-07T02:23:09.889Z,100323.05
2018-10-07T02:25:38.014Z,100325.88
2018-10-07T02:28:06.971Z,100332.02
2018-10-07T02:30:34.549Z,100336.49
2018-10-07T02:33:01.275Z,100335.83
2018-10-07T02:35:29.025Z,100337.45
2018-10-07T02:37:56.493Z,100345.58
2018-10-07T02:40:24.087Z,100342.26
2018-10-07T02:42:51.732Z,100346.25
2018-10-07T02:45:19.312Z,100345.58
2018-10-07T02:47:46.800Z,100348.08
2018-10-07T02:50:19.036Z,100335.63
2018-10-07T02:52:50.472Z,100353.92
2018-10-07T02:55:20.420Z,100357.36
2018-10-07T02:57:48.395Z,100357.86
2018-10-07T03:00:15.244Z,100358.73
2018-10-07T03:02:42.897Z,100354.58
2018-10-07T03:05:10.373Z,100361.55
2018-10-07T03:07:39.424Z,100362.50
2018-10-07T03:10:07.633Z,100362.63
2018-10-07T03:12:37.241Z,100364.83
2018-10-07T03:15:07.117Z,100366.28
2018-10-07T03:17:35.843Z,100371.59
2018-10-07T03:20:02.493Z,100368.80
2018-10-07T03:22:30.444Z,100368.11
2018-10-07T03:24:58.101Z,100370.27
2018-10-07T03:27:24.885Z,100369.80
2018-10-07T03:29:52.593Z,100375.45
2018-10-07T03:32:20.149Z,100375.28
2018-10-07T03:34:47.622Z,100375.81
2018-10-07T03:37:15.286Z,100369.97
2018-10-07T03:39:41.929Z,100368.80
2018-10-07T03:42:09.573Z,100379.26
2018-10-07T03:44:37.309Z,100383.73
2018-10-07T03:47:06.285Z,100380.30
2018-10-07T03:49:32.932Z,100383.78
2018-10-07T03:52:00.399Z,100385.11
2018-10-07T03:54:28.027Z,100395.03
2018-10-07T03:56:56.145Z,100398.67
2018-10-07T03:59:24.132Z,100390.70
2018-10-07T04:01:52.045Z,100387.10
2018-10-07T04:04:19.636Z,100400.00
2018-10-07T04:06:47.222Z,100410.33
2018-10-07T04:09:14.885Z,100404.98
2018-10-07T04:11:43.103Z,100409.63
2018-10-07T04:14:11.709Z,100414.06
2018-10-07T04:16:39.151Z,100420.24
2018-10-07T04:19:07.128Z,100427.22
2018-10-07T04:21:34.704Z,100421.95
2018-10-07T04:24:02.933Z,100426.77
2018-10-07T04:26:30.522Z,100434.64
2018-10-07T04:28:58.000Z,100423.86
2018-10-07T04:31:24.847Z,100433.81
2018-10-07T04:33:52.437Z,100433.31
2018-10-07T04:36:20.065Z,100436.09
2018-10-07T04:38:47.693Z,100440.91
2018-10-07T04:41:14.449Z,100443.27
2018-10-07T04:43:41.121Z,100441.61
2018-10-07T04:46:07.824Z,100443.23
2018-10-07T04:48:34.440Z,100443.27
2018-10-07T04:51:01.085Z,100437.63
2018-10-07T04:53:27.744Z,100444.52
2018-10-07T04:55:55.297Z,100458.16
2018-10-07T04:58:21.967Z,100448.70
2018-10-07T05:00:49.552Z,100452.53
2018-10-07T05:03:16.208Z,100457.34
2018-10-07T05:05:42.877Z,100464.47
2018-10-07T05:08:09.536Z,100468.33
2018-10-07T05:10:52.825Z,100466.63
2018-10-07T05:13:22.733Z,100466.81
2018-10-07T05:15:51.888Z,100473.20
2018-10-07T05:18:18.529Z,100477.37
2018-10-07T05:20:45.251Z,100482.23
2018-10-07T05:23:11.880Z,100486.87
2018-10-07T05:25:38.553Z,100492.75
2018-10-07T05:28:05.281Z,100503.91
2018-10-07T05:30:31.951Z,100506.95
2018-10-07T05:32:58.589Z,100503.29
2018-10-07T05:35:25.242Z,100505.29
2018-10-07T05:37:52.748Z,100514.25
2018-10-07T05:40:19.427Z,100521.38
2018-10-07T05:42:47.085Z,100523.20
2018-10-07T05:45:14.741Z,100527.86
2018-10-07T05:47:42.213Z,100527.31
2018-10-07T05:50:09.885Z,100534.66
2018-10-07T05:52:38.472Z,100543.58
2018-10-07T05:55:07.236Z,100553.53
2018-10-07T05:57:37.049Z,100547.39
2018-10-07T06:00:04.541Z,100555.84
2018-10-07T06:02:32.465Z,100562.33
2018-10-07T06:04:59.257Z,100560.06
2018-10-07T06:07:26.848Z,100566.64
2018-10-07T06:09:54.324Z,100570.13
2018-10-07T06:12:21.897Z,100577.97
2018-10-07T06:14:54.272Z,100586.27
2018-10-07T06:17:21.776Z,100587.05
2018-10-07T06:19:49.261Z,100592.08
2018-10-07T06:22:16.908Z,100596.68
2018-10-07T06:24:43.554Z,100613.11
2018-10-07T06:27:11.607Z,100611.28
2018-10-07T06:29:40.093Z,100614.44
2018-10-07T06:32:07.629Z,100617.80
2018-10-07T06:34:34.309Z,100625.32
2018-10-07T06:37:00.984Z,100623.50
2018-10-07T06:39:27.759Z,100619.52
2018-10-07T06:41:54.436Z,100622.72
2018-10-07T06:44:21.636Z,100631.19
2018-10-07T06:46:49.155Z,100636.95
2018-10-07T06:49:16.236Z,100654.09
2018-10-07T06:51:43.817Z,100669.69
2018-10-07T06:54:11.413Z,100678.09
2018-10-07T06:56:40.117Z,100680.09
2018-10-07T06:59:06.812Z,100677.99
2018-10-07T07:01:33.496Z,100679.66
2018-10-07T07:04:01.110Z,100688.30
2018-10-07T07:06:28.788Z,100698.34
2018-10-07T07:08:56.492Z,100703.34
2018-10-07T07:11:23.158Z,100702.91
2018-10-07T07:13:50.616Z,100702.08
2018-10-07T07:16:17.296Z,100712.91
2018-10-07T07:18:44.797Z,100708.09
2018-10-07T07:21:12.404Z,100720.98
2018-10-07T07:23:40.884Z,100728.87
2018-10-07T07:26:09.229Z,100730.77
2018-10-07T07:28:36.844Z,100744.88
2018-10-07T07:31:04.516Z,100751.14
2018-10-07T07:33:32.000Z,100758.00
2018-10-07T07:35:59.633Z,100761.83
2018-10-07T07:38:27.151Z,100768.19
2018-10-07T07:40:54.602Z,100771.28
2018-10-07T07:43:21.242Z,100778.66
2018-10-07T07:45:48.748Z,100784.70
2018-10-07T07:48:16.372Z,100778.47
2018-10-07T07:50:44.120Z,100789.22
2018-10-07T07:53:11.672Z,100783.81
2018-10-07T07:55:38.321Z,100791.62
2018-10-07T07:58:06.016Z,100804.62
2018-10-07T08:00:33.508Z,100812.35
2018-10-07T08:03:01.129Z,100807.28
2018-10-07T08:05:29.253Z,100821.16
2018-10-07T08:07:55.921Z,100827.73
2018-10-07T08:10:23.345Z,100824.30
2018-10-07T08:12:50.820Z,100839.47
2018-10-07T08:15:18.427Z,100842.21
2018-10-07T08:17:45.054Z,100853.95
2018-10-07T08:20:12.635Z,100862.75
2018-10-07T08:22:39.949Z,100865.21
2018-10-07T08:25:08.052Z,100874.58
2018-10-07T08:27:34.709Z,100875.41
2018-10-07T08:30:01.377Z,100883.99
2018-10-07T08:32:28.052Z,100883.31
2018-10-07T08:34:54.711Z,100891.47
2018-10-07T08:37:21.437Z,100895.26
2018-10-07T08:39:48.917Z,100893.65
2018-10-07T08:42:15.569Z,100913.52
2018-10-07T08:44:42.218Z,100916.03
2018-10-07T08:47:09.781Z,100927.98
2018-10-07T08:49:37.707Z,100936.44
2018-10-07T08:52:04.380Z,100942.81
2018-10-07T08:54:33.072Z,100947.12
2018-10-07T08:56:59.729Z,100958.19
2018-10-07T08:59:27.369Z,100969.20
2018-10-07T09:01:54.132Z,100981.01
2018-10-07T09:04:21.643Z,100983.05
2018-10-07T09:06:48.288Z,100990.19
2018-10-07T09:09:15.000Z,100999.74
2018-10-07T09:11:42.661Z,100996.67
2018-10-07T09:14:09.850Z,101005.73
2018-10-07T09:16:36.505Z,101011.36
2018-10-07T09:19:03.192Z,101020.23
2018-10-07T09:21:29.880Z,101024.26
2018-10-07T09:23:57.416Z,101034.63
2018-10-07T09:26:24.135Z,101035.03
2018-10-07T09:28:50.788Z,101039.51
2018-10-07T09:31:17.457Z,101039.25
2018-10-07T09:33:44.104Z,101041.18
2018-10-07T09:36:10.754Z,101057.34
2018-10-07T09:38:39.371Z,101058.36
2018-10-07T09:41:07.086Z,101059.77
2018-10-07T09:43:34.510Z,101070.80
2018-10-07T09:46:01.207Z,101076.75
2018-10-07T09:48:27.869Z,101079.11
2018-10-07T09:50:56.613Z,101089.54
2018-10-07T09:53:23.393Z,101091.79
2018-10-07T09:55:51.093Z,101092.28
2018-10-07T09:58:17.804Z,101109.39
2018-10-07T10:00:44.449Z,101113.53
2018-10-07T10:03:11.792Z,101112.11
2018-10-07T10:05:39.482Z,101116.24
2018-10-07T10:08:07.281Z,101121.89
2018-10-07T10:10:34.879Z,101124.32
2018-10-07T10:13:02.383Z,101129.03
2018-10-07T10:15:30.052Z,101137.69
2018-10-07T10:17:58.151Z,101140.98
2018-10-07T10:20:25.957Z,101147.33
2018-10-07T10:23:05.802Z,101150.97
2018-10-07T10:25:39.716Z,101154.60
2018-10-07T10:28:19.213Z,101164.05
2018-10-07T10:30:47.893Z,101163.72
2018-10-07T10:33:20.882Z,101161.30
2018-10-07T10:35:50.404Z,101166.91
2018-10-07T10:40:28.345Z,101168.50
2018-10-07T10:43:00.734Z,101167.89
2018-10-07T10:45:33.084Z,101168.41
2018-10-07T10:48:01.547Z,101176.06
2018-10-07T10:50:33.641Z,101175.86
2018-10-07T10:53:09.801Z,101175.48
2018-10-07T10:55:42.289Z,101199.08
2018-10-07T10:58:14.004Z,101206.84
2018-10-07T11:00:52.808Z,101215.10
2018-10-07T11:04:22.761Z,101231.69
2018-10-07T11:06:54.516Z,101237.11
2018-10-07T11:09:26.989Z,101240.02
2018-10-07T11:12:02.325Z,101236.63
2018-10-07T11:14:33.960Z,101240.58
2018-10-07T11:17:11.157Z,101233.47
2018-10-07T11:19:39.606Z,101239.33
2018-10-07T11:22:11.032Z,101242.53
2018-10-07T11:24:41.558Z,101252.86
2018-10-07T11:27:19.469Z,101251.44
2018-10-07T11:29:50.399Z,101251.92
2018-10-07T11:32:22.754Z,101263.20
2018-10-07T11:34:55.078Z,101265.05
2018-10-07T11:37:28.196Z,101265.02
2018-10-07T11:40:00.592Z,101268.20
2018-10-07T11:42:29.821Z,101269.34
2018-10-07T11:45:00.468Z,101269.48
2018-10-07T11:47:32.030Z,101270.58
2018-10-07T11:50:08.010Z,101273.51
2018-10-07T11:52:40.939Z,101275.92
2018-10-07T11:55:07.543Z,101286.05
2018-10-07T11:57:34.236Z,101289.36
2018-10-07T12:00:01.221Z,101293.83
2018-10-07T12:02:28.822Z,101301.45
2018-10-07T12:04:55.525Z,101294.56
2018-10-07T12:07:23.590Z,101307.73
2018-10-07T12:09:51.312Z,101302.33
2018-10-07T12:12:17.965Z,101304.14
2018-10-07T12:14:45.195Z,101299.05
2018-10-07T12:17:11.860Z,101304.64
2018-10-07T12:19:39.628Z,101301.60
2018-10-07T12:22:07.411Z,101304.88
2018-10-07T12:24:34.065Z,101308.69
2018-10-07T12:27:00.748Z,101307.84
2018-10-07T12:29:28.369Z,101315.81
2018-10-07T12:31:55.261Z,101322.00
2018-10-07T12:34:21.933Z,101318.96
2018-10-07T12:36:49.545Z,101325.34
2018-10-07T12:39:16.677Z,101320.64
2018-10-07T12:41:43.334Z,101319.23
2018-10-07T12:44:12.316Z,101322.94
2018-10-07T12:46:39.642Z,101328.53
2018-10-07T12:49:07.358Z,101334.54
2018-10-07T12:51:34.012Z,101333.22
2018-10-07T12:54:00.717Z,101333.56
2018-10-07T12:56:27.326Z,101335.28
2018-10-07T12:58:53.989Z,101334.30
2018-10-07T13:01:21.606Z,101333.22
2018-10-07T13:03:48.304Z,101347.78
2018-10-07T13:06:14.929Z,101343.31
2018-10-07T13:08:41.608Z,101347.05
2018-10-07T13:11:08.277Z,101344.63
2018-10-07T13:13:34.907Z,101346.80
2018-10-07T13:16:01.561Z,101351.45
2018-10-07T13:18:28.188Z,101362.06
2018-10-07T13:20:54.825Z,101368.01
2018-10-07T13:23:22.309Z,101361.72
2018-10-07T13:25:49.934Z,101372.59
2018-10-07T13:28:17.532Z,101379.33
2018-10-07T13:30:45.180Z,101383.45
2018-10-07T13:33:12.829Z,101388.80
2018-10-07T13:35:40.284Z,101389.99
2018-10-07T13:38:06.977Z,101398.94
2018-10-07T13:40:33.661Z,101392.58
2018-10-07T13:43:01.202Z,101402.36
2018-10-07T13:45:27.843Z,101405.23
2018-10-07T13:47:55.407Z,101412.92
2018-10-07T13:50:22.048Z,101418.23
2018-10-07T13:52:48.813Z,101414.88
2018-10-07T13:55:15.481Z,101421.27
2018-10-07T13:57:42.141Z,101427.07
2018-10-07T14:00:09.246Z,101431.41
2018-10-07T14:02:36.816Z,101429.13
2018-10-07T14:05:03.558Z,101430.22
2018-10-07T14:07:30.200Z,101430.70
2018-10-07T14:09:56.845Z,101437.02
2018-10-07T14:12:23.605Z,101442.55
2018-10-07T14:14:50.253Z,101441.22
2018-10-07T14:17:16.912Z,101450.86
2018-10-07T14:19:43.556Z,101446.87
2018-10-07T14:22:10.212Z,101447.23
2018-10-07T14:24:37.665Z,101453.87
2018-10-07T14:27:04.314Z,101459.08
2018-10-07T14:29:31.866Z,101460.05
2018-10-07T14:31:58.637Z,101471.05
2018-10-07T14:34:26.386Z,101468.27
2018-10-07T14:36:53.032Z,101472.70
2018-10-07T14:39:19.899Z,101480.98
2018-10-07T14:41:46.449Z,101480.13
2018-10-07T14:44:13.169Z,101487.39
2018-10-07T14:46:40.789Z,101489.92
2018-10-07T14:49:07.657Z,101497.06
2018-10-07T14:51:34.296Z,101493.82
2018-10-07T14:54:00.980Z,101505.27
2018-10-07T14:56:27.678Z,101506.20
2018-10-07T14:58:54.349Z,101500.45
2018-10-07T15:01:21.066Z,101506.48
2018-10-07T15:03:47.721Z,101507.81
2018-10-07T15:06:14.352Z,101510.11
2018-10-07T15:08:41.036Z,101513.12
2018-10-07T15:11:09.212Z,101515.36
2018-10-07T15:13:36.636Z,101516.10
2018-10-07T15:16:03.320Z,101519.62
2018-10-07T15:18:29.977Z,101522.41
2018-10-07T15:20:57.577Z,101520.44
2018-10-07T15:23:25.157Z,101521.55
2018-10-07T15:25:51.969Z,101522.63
2018-10-07T15:28:20.419Z,101520.59
2018-10-07T15:30:47.350Z,101521.55
2018-10-07T15:33:14.002Z,101521.42
2018-10-07T15:35:40.668Z,101522.87
2018-10-07T15:38:07.959Z,101531.06
2018-10-07T15:40:34.889Z,101530.32
2018-10-07T15:43:03.689Z,101529.38
2018-10-07T15:45:30.405Z,101533.11
2018-10-07T15:47:57.041Z,101532.75
2018-10-07T15:50:23.700Z,101537.58
2018-10-07T15:52:51.400Z,101541.42
2018-10-07T15:55:18.037Z,101540.09
2018-10-07T15:57:44.683Z,101539.13
2018-10-07T16:00:11.512Z,101551.91
2018-10-07T16:02:38.192Z,101547.80
2018-10-07T16:05:04.876Z,101548.77
2018-10-07T16:07:32.504Z,101556.85
2018-10-07T16:09:59.222Z,101558.80
2018-10-07T16:12:26.833Z,101556.37
2018-10-07T16:14:53.505Z,101567.43
2018-10-07T16:17:20.193Z,101571.18
2018-10-07T16:19:48.129Z,101574.41
2018-10-07T16:22:15.745Z,101579.85
2018-10-07T16:24:42.404Z,101578.23
2018-10-07T16:27:11.440Z,101593.79
2018-10-07T16:29:40.157Z,101595.95
2018-10-07T16:32:07.735Z,101595.82
2018-10-07T16:34:34.351Z,101598.47
2018-10-07T16:37:01.936Z,101605.23
2018-10-07T16:39:28.585Z,101611.85
2018-10-07T16:41:56.248Z,101614.45
2018-10-07T16:44:22.920Z,101621.19
2018-10-07T16:46:50.498Z,101625.87
2018-10-07T16:49:17.189Z,101626.63
2018-10-07T16:51:44.786Z,101629.50
2018-10-07T16:54:11.496Z,101633.84
2018-10-07T16:56:40.041Z,101636.41
2018-10-07T16:59:07.612Z,101633.69
2018-10-07T17:01:34.265Z,101638.27
2018-10-07T17:04:01.949Z,101643.45
2018-10-07T17:06:29.597Z,101645.14
2018-10-07T17:08:56.508Z,101648.63
2018-10-07T17:11:23.158Z,101653.45
2018-10-07T17:13:50.617Z,101655.93
2018-10-07T17:16:17.253Z,101658.27
2018-10-07T17:18:44.837Z,101660.09
2018-10-07T17:21:12.506Z,101668.64
2018-10-07T17:23:40.033Z,101673.59
2018-10-07T17:26:07.757Z,101674.08
2018-10-07T17:28:35.277Z,101672.05
2018-10-07T17:31:03.863Z,101675.53
2018-10-07T17:33:30.586Z,101685.53
2018-10-07T17:35:57.462Z,101691.23
2018-10-07T17:38:25.053Z,101688.94
2018-10-07T17:40:52.609Z,101702.08
2018-10-07T17:43:19.249Z,101695.70
2018-10-07T17:45:45.895Z,101702.20
2018-10-07T17:48:12.572Z,101704.37
2018-10-07T17:50:40.409Z,101703.05
2018-10-07T17:53:08.194Z,101704.37
2018-10-07T17:55:34.881Z,101709.55
2018-10-07T17:58:02.421Z,101707.52
2018-10-07T18:00:29.068Z,101715.83
2018-10-07T18:02:56.643Z,101722.81
2018-10-07T18:05:23.277Z,101722.33
2018-10-07T18:07:50.765Z,101733.43
2018-10-07T18:10:17.424Z,101736.70
2018-10-07T18:12:44.934Z,101746.84
2018-10-07T18:15:13.063Z,101751.91
2018-10-07T18:17:41.025Z,101746.56
2018-10-07T18:20:09.604Z,101748.98
2018-10-07T18:22:38.176Z,101752.48
2018-10-07T18:25:06.900Z,101753.32
2018-10-07T18:27:34.500Z,101755.49
2018-10-07T18:30:01.190Z,101758.98
2018-10-07T18:32:28.845Z,101762.73
2018-10-07T18:34:55.485Z,101764.42
2018-10-07T18:37:22.337Z,101763.70
2018-10-07T18:39:48.992Z,101762.59
2018-10-07T18:42:15.650Z,101760.56
2018-10-07T18:44:43.314Z,101760.70
2018-10-07T18:47:10.797Z,101768.19
2018-10-07T18:49:38.333Z,101769.73
2018-10-07T18:52:05.016Z,101770.57
2018-10-07T18:54:31.807Z,101773.83
2018-10-07T18:56:58.562Z,101773.22
2018-10-07T18:59:25.394Z,101771.89
2018-10-07T19:01:52.111Z,101779.84
2018-10-07T19:04:18.824Z,101776.58
2018-10-07T19:06:46.333Z,101779.35
2018-10-07T19:09:12.986Z,101786.70
2018-10-07T19:11:40.680Z,101785.28
2018-10-07T19:14:07.448Z,101785.64
2018-10-07T19:16:34.124Z,101789.02
2018-10-07T19:19:00.773Z,101781.65
2018-10-07T19:21:27.426Z,101779.84
2018-10-07T19:23:54.114Z,101780.07
2018-10-07T19:26:21.784Z,101787.83
2018-10-07T19:28:48.409Z,101788.30
2018-10-07T19:31:16.009Z,101794.65
2018-10-07T19:33:42.674Z,101791.63
2018-10-07T19:36:10.409Z,101792.98
2018-10-07T19:38:40.038Z,101797.92
2018-10-07T19:41:07.613Z,101798.00
2018-10-07T19:43:34.250Z,101804.90
2018-10-07T19:46:00.888Z,101799.59
2018-10-07T19:48:27.558Z,101805.02
2018-10-07T19:50:54.212Z,101798.88
2018-10-07T19:53:20.953Z,101809.59
2018-10-07T19:55:47.589Z,101804.20
2018-10-07T19:58:14.232Z,101811.39
2018-10-07T20:00:40.868Z,101816.81
2018-10-07T20:03:07.781Z,101815.48
2018-10-07T20:05:34.440Z,101814.04
2018-10-07T20:08:01.114Z,101814.31
2018-10-07T20:10:27.897Z,101821.30
2018-10-07T20:12:54.553Z,101818.88
2018-10-07T20:15:21.224Z,101818.88
2018-10-07T20:17:47.904Z,101821.66
2018-10-07T20:20:14.585Z,101816.50
2018-10-07T20:22:41.328Z,101813.22
2018-10-07T20:25:08.109Z,101815.97
2018-10-07T20:27:34.764Z,101811.39
2018-10-07T20:30:02.428Z,101820.53
2018-10-07T20:32:29.935Z,101818.72
2018-10-07T20:34:57.588Z,101821.37
2018-10-07T20:37:25.200Z,101822.60
2018-10-07T20:39:52.873Z,101823.45
2018-10-07T20:42:19.536Z,101829.72
2018-10-07T20:44:47.040Z,101827.66
2018-10-07T20:47:14.701Z,101832.38
2018-10-07T20:49:42.288Z,101839.00
2018-10-07T20:52:10.046Z,101841.53
2018-10-07T20:54:38.004Z,101847.87
2018-10-07T20:57:04.713Z,101842.44
2018-10-07T20:59:31.359Z,101846.66
2018-10-07T21:01:58.074Z,101850.73
2018-10-07T21:04:24.733Z,101846.33
2018-10-07T21:06:52.321Z,101845.36
2018-10-07T21:09:19.068Z,101847.17
2018-10-07T21:11:45.712Z,101844.88
2018-10-07T21:14:12.433Z,101852.02
2018-10-07T21:16:41.509Z,101849.52
2018-10-07T21:19:08.162Z,101848.55
2018-10-07T21:21:36.876Z,101848.19
2018-10-07T21:24:04.671Z,101848.67
2018-10-07T21:26:32.208Z,101842.88
2018-10-07T21:28:59.709Z,101847.47
2018-10-07T21:31:27.317Z,101852.30
2018-10-07T21:33:55.002Z,101855.02
2018-10-07T21:36:22.596Z,101851.78
2018-10-07T21:38:50.142Z,101849.98
2018-10-07T21:41:17.642Z,101844.67
2018-10-07T21:43:45.201Z,101845.39
2018-10-07T21:46:12.845Z,101847.08
2018-10-07T21:48:40.545Z,101847.89
2018-10-07T21:51:09.657Z,101844.40
2018-10-07T21:53:39.553Z,101845.39
2018-10-07T21:56:09.720Z,101844.88
2018-10-07T21:58:37.306Z,101851.24
2018-10-07T22:01:03.947Z,101850.49
2018-10-07T22:03:30.604Z,101851.97
2018-10-07T22:05:57.248Z,101850.94
2018-10-07T22:08:23.900Z,101842.38
2018-10-07T22:10:50.580Z,101847.32
2018-10-07T22:13:17.213Z,101846.56
2018-10-07T22:15:43.860Z,101842.71
2018-10-07T22:18:10.863Z,101842.71
2018-10-07T22:20:37.553Z,101840.33
2018-10-07T22:23:04.209Z,101840.91
2018-10-07T22:25:31.688Z,101841.11
2018-10-07T22:27:58.333Z,101837.89
2018-10-07T22:30:25.014Z,101831.83
2018-10-07T22:32:52.448Z,101826.92
2018-10-07T22:35:19.092Z,101827.77
2018-10-07T22:37:46.698Z,101820.98
2018-10-07T22:40:13.336Z,101831.74
2018-10-07T22:42:40.825Z,101826.67
2018-10-07T22:45:07.517Z,101826.80
2018-10-07T22:47:34.185Z,101821.47
2018-10-07T22:50:00.893Z,101823.63
2018-10-07T22:52:27.525Z,101813.51
2018-10-07T22:54:54.174Z,101815.83
2018-10-07T22:57:20.808Z,101823.00
2018-10-07T22:59:47.458Z,101824.45
2018-10-07T23:02:15.146Z,101823.00
2018-10-07T23:04:42.799Z,101820.14
2018-10-07T23:07:10.453Z,101820.71
2018-10-07T23:09:38.393Z,101823.27
2018-10-07T23:12:05.116Z,101819.87
2018-10-07T23:14:31.762Z,101822.67
2018-10-07T23:16:59.373Z,101820.88
2018-10-07T23:19:26.789Z,101822.55
2018-10-07T23:21:54.425Z,101824.48
2018-10-07T23:24:22.102Z,101829.84
2018-10-07T23:26:48.900Z,101831.62
2018-10-07T23:29:16.426Z,101833.80
2018-10-07T23:31:44.089Z,101833.73
2018-10-07T23:34:11.670Z,101840.27
2018-10-07T23:36:40.325Z,101846.91
2018-10-07T23:39:09.389Z,101841.59
2018-10-07T23:41:37.981Z,101848.47
2018-10-07T23:44:07.033Z,101846.52
2018-10-07T23:46:34.629Z,101847.05
2018-10-07T23:49:01.332Z,101844.16
2018-10-07T23:51:28.944Z,101849.52
2018-10-07T23:53:56.505Z,101851.72
2018-10-07T23:56:23.184Z,101859.86
2018-10-07T23:58:50.850Z,101861.46
